createdAt,value
2022-08-19T00:01:28.896Z,18.44
2022-08-19T00:03:59.058Z,18.48
2022-08-19T00:06:27.357Z,18.49
2022-08-19T00:08:56.361Z,18.51
2022-08-19T00:11:26.382Z,18.52
2022-08-19T00:13:56.365Z,18.53
2022-08-19T00:16:26.530Z,18.51
2022-08-19T00:18:56.367Z,18.46
2022-08-19T00:21:25.392Z,18.47
2022-08-19T00:23:53.536Z,18.42
2022-08-19T00:26:22.225Z,18.37
2022-08-19T00:28:51.585Z,18.29
2022-08-19T00:31:19.690Z,18.31
2022-08-19T00:33:48.840Z,18.29
2022-08-19T00:36:17.003Z,18.31
2022-08-19T00:38:45.194Z,18.35
2022-08-19T00:41:17.121Z,18.22
2022-08-19T00:43:45.663Z,18.16
2022-08-19T00:46:15.071Z,18.15
2022-08-19T00:48:43.186Z,18.20
2022-08-19T00:51:11.553Z,18.17
2022-08-19T00:53:40.593Z,18.13
2022-08-19T00:56:09.739Z,18.16
2022-08-19T00:58:38.204Z,18.08
2022-08-19T01:01:08.614Z,18.10
2022-08-19T01:03:56.966Z,18.11
2022-08-19T01:06:27.050Z,18.03
2022-08-19T01:08:56.401Z,18.00
2022-08-19T01:11:24.452Z,17.91
2022-08-19T01:13:55.212Z,17.90
2022-08-19T01:16:26.277Z,17.92
2022-08-19T01:18:55.705Z,17.88
2022-08-19T01:21:32.368Z,17.85
2022-08-19T01:24:01.818Z,17.83
2022-08-19T01:26:31.201Z,17.77
2022-08-19T01:29:01.990Z,17.80
2022-08-19T01:31:33.117Z,17.86
2022-08-19T01:34:03.574Z,17.84
2022-08-19T01:36:35.544Z,17.79
2022-08-19T01:39:08.058Z,17.83
2022-08-19T01:41:36.452Z,17.85
2022-08-19T01:44:17.635Z,17.80
2022-08-19T01:46:49.169Z,17.77
2022-08-19T01:49:20.359Z,17.81
2022-08-19T01:51:48.900Z,17.78
2022-08-19T01:54:23.229Z,17.75
2022-08-19T01:57:00.069Z,17.68
2022-08-19T01:59:28.432Z,17.63
2022-08-19T02:01:56.443Z,17.63
2022-08-19T02:04:26.396Z,17.58
2022-08-19T02:06:54.544Z,17.44
2022-08-19T02:09:24.087Z,17.40
2022-08-19T02:11:52.207Z,17.41
2022-08-19T02:14:20.245Z,17.43
2022-08-19T02:16:48.401Z,17.38
2022-08-19T02:19:16.446Z,17.38
2022-08-19T02:21:45.001Z,17.38
2022-08-19T02:24:13.204Z,17.36
2022-08-19T02:26:42.617Z,17.32
2022-08-19T02:29:10.649Z,17.25
2022-08-19T02:31:38.733Z,17.29
2022-08-19T02:34:06.756Z,17.29
2022-08-19T02:36:34.758Z,17.25
2022-08-19T02:39:01.804Z,17.22
2022-08-19T02:41:32.365Z,17.25
2022-08-19T02:44:29.535Z,17.22
2022-08-19T02:46:53.106Z,17.21
2022-08-19T02:49:21.661Z,17.08
2022-08-19T02:51:49.895Z,17.09
2022-08-19T02:54:17.966Z,17.25
2022-08-19T02:56:47.314Z,17.29
2022-08-19T02:59:16.718Z,17.30
2022-08-19T03:01:44.816Z,17.26
2022-08-19T03:04:15.162Z,17.29
2022-08-19T03:06:46.535Z,17.32
2022-08-19T03:09:15.075Z,17.29
2022-08-19T03:11:43.241Z,17.30
2022-08-19T03:14:12.256Z,17.28
2022-08-19T03:16:46.267Z,17.22
2022-08-19T03:19:15.347Z,17.25
2022-08-19T03:21:46.645Z,17.24
2022-08-19T03:24:16.384Z,17.24
2022-08-19T03:26:46.915Z,17.27
2022-08-19T03:29:15.301Z,17.32
2022-08-19T03:31:55.720Z,17.31
2022-08-19T03:34:27.303Z,17.28
2022-08-19T03:36:56.052Z,17.21
2022-08-19T03:39:25.389Z,17.22
2022-08-19T03:42:32.707Z,17.22
2022-08-19T03:44:46.657Z,17.06
2022-08-19T03:47:17.795Z,17.23
2022-08-19T03:49:46.607Z,17.26
2022-08-19T03:52:15.120Z,17.26
2022-08-19T03:54:43.297Z,17.28
2022-08-19T03:57:12.103Z,17.32
2022-08-19T03:59:41.338Z,17.33
2022-08-19T04:02:12.291Z,17.28
2022-08-19T04:04:43.962Z,17.23
2022-08-19T04:07:13.881Z,17.16
2022-08-19T04:09:41.991Z,17.34
2022-08-19T04:12:10.896Z,17.33
2022-08-19T04:14:38.960Z,17.37
2022-08-19T04:17:07.014Z,17.09
2022-08-19T04:19:36.700Z,17.29
2022-08-19T04:22:07.814Z,17.38
2022-08-19T04:24:37.034Z,17.34
2022-08-19T04:27:07.123Z,17.39
2022-08-19T04:29:36.186Z,17.39
2022-08-19T04:32:08.769Z,17.25
2022-08-19T04:35:02.802Z,17.49
2022-08-19T04:37:35.504Z,17.45
2022-08-19T04:40:24.375Z,17.48
2022-08-19T04:42:52.614Z,17.52
2022-08-19T04:45:23.039Z,17.57
2022-08-19T04:47:58.652Z,17.55
2022-08-19T04:50:42.585Z,17.53
2022-08-19T04:53:12.754Z,17.51
2022-08-19T04:55:42.522Z,17.53
2022-08-19T04:58:11.009Z,17.58
2022-08-19T05:00:40.808Z,17.63
2022-08-19T05:03:09.874Z,17.59
2022-08-19T05:05:45.157Z,17.58
2022-08-19T05:08:19.476Z,17.53
2022-08-19T05:11:00.071Z,17.50
2022-08-19T05:13:28.897Z,17.48
2022-08-19T05:15:58.160Z,17.46
2022-08-19T05:18:45.210Z,17.46
2022-08-19T05:21:32.948Z,17.38
2022-08-19T05:24:03.045Z,17.39
2022-08-19T05:26:31.053Z,17.37
2022-08-19T05:28:59.096Z,17.32
2022-08-19T05:31:28.618Z,17.35
2022-08-19T05:33:56.885Z,17.36
2022-08-19T05:36:24.920Z,17.35
2022-08-19T05:38:54.160Z,17.35
2022-08-19T05:41:31.441Z,17.37
2022-08-19T05:44:00.666Z,17.38
2022-08-19T05:46:28.827Z,17.33
2022-08-19T05:48:57.407Z,17.35
2022-08-19T05:51:29.261Z,17.35
2022-08-19T05:53:57.609Z,17.36
2022-08-19T05:56:27.031Z,17.35
2022-08-19T05:58:55.146Z,17.31
2022-08-19T06:01:23.241Z,17.26
2022-08-19T06:03:51.792Z,17.21
2022-08-19T06:06:20.534Z,17.20
2022-08-19T06:08:51.098Z,17.23
2022-08-19T06:11:22.741Z,17.20
2022-08-19T06:13:57.191Z,17.29
2022-08-19T06:16:28.824Z,17.29
2022-08-19T06:18:58.835Z,17.35
2022-08-19T06:21:29.608Z,17.31
2022-08-19T06:23:59.011Z,17.25
2022-08-19T06:26:28.282Z,17.24
2022-08-19T06:28:57.920Z,17.28
2022-08-19T06:31:29.099Z,17.36
2022-08-19T06:33:57.142Z,17.34
2022-08-19T06:36:32.544Z,17.35
2022-08-19T06:39:00.942Z,17.40
2022-08-19T06:41:30.097Z,17.45
2022-08-19T06:43:59.831Z,17.51
2022-08-19T06:46:28.723Z,17.39
2022-08-19T06:48:56.957Z,17.66
2022-08-19T06:51:26.247Z,17.69
2022-08-19T06:54:00.318Z,17.67
2022-08-19T06:56:34.653Z,17.60
2022-08-19T06:59:05.743Z,17.61
2022-08-19T07:01:38.439Z,17.64
2022-08-19T07:04:09.410Z,17.68
2022-08-19T07:06:43.515Z,17.63
2022-08-19T07:09:14.842Z,17.64
2022-08-19T07:11:48.319Z,17.60
2022-08-19T07:14:20.558Z,17.50
2022-08-19T07:16:50.441Z,17.36
2022-08-19T07:19:19.857Z,17.46
2022-08-19T07:21:48.522Z,17.47
2022-08-19T07:24:17.204Z,17.36
2022-08-19T07:26:45.635Z,17.48
2022-08-19T07:29:14.455Z,17.48
2022-08-19T07:31:43.869Z,17.53
2022-08-19T07:34:14.327Z,17.56
2022-08-19T07:36:44.241Z,17.58
2022-08-19T07:39:15.353Z,17.60
2022-08-19T07:41:43.452Z,17.64
2022-08-19T07:44:13.061Z,17.69
2022-08-19T07:46:48.165Z,17.72
2022-08-19T07:49:20.102Z,17.74
2022-08-19T07:51:49.838Z,17.77
2022-08-19T07:54:19.047Z,17.78
2022-08-19T07:56:47.520Z,17.83
2022-08-19T07:59:15.781Z,17.80
2022-08-19T08:01:46.229Z,17.82
2022-08-19T08:04:32.073Z,17.80
2022-08-19T08:07:17.508Z,17.85
2022-08-19T08:09:49.679Z,17.90
2022-08-19T08:12:34.215Z,17.88
2022-08-19T08:15:08.892Z,17.84
2022-08-19T08:17:49.837Z,17.93
2022-08-19T08:20:21.632Z,17.82
2022-08-19T08:23:07.449Z,17.78
2022-08-19T08:25:37.391Z,17.81
2022-08-19T08:28:08.421Z,17.80
2022-08-19T08:30:42.461Z,17.93
2022-08-19T08:35:47.994Z,18.06
2022-08-19T08:38:16.253Z,18.07
2022-08-19T08:40:49.541Z,18.10
2022-08-19T08:43:26.560Z,18.14
2022-08-19T08:46:03.366Z,18.23
2022-08-19T08:48:40.230Z,18.28
2022-08-19T08:51:13.412Z,18.28
2022-08-19T08:53:44.203Z,18.38
2022-08-19T08:56:13.941Z,18.41
2022-08-19T08:58:56.529Z,18.33
2022-08-19T09:01:24.942Z,18.29
2022-08-19T09:04:02.771Z,18.43
2022-08-19T09:06:40.652Z,18.42
2022-08-19T09:09:16.563Z,18.56
2022-08-19T09:11:58.141Z,18.50
2022-08-19T09:14:54.329Z,18.45
2022-08-19T09:17:29.050Z,18.51
2022-08-19T09:20:05.768Z,18.57
2022-08-19T09:22:38.763Z,18.58
2022-08-19T09:25:08.465Z,18.63
2022-08-19T09:27:42.708Z,18.64
2022-08-19T09:30:17.460Z,18.70
2022-08-19T09:32:46.215Z,18.80
2022-08-19T09:35:16.775Z,18.91
2022-08-19T09:37:45.277Z,19.03
2022-08-19T09:40:15.367Z,19.09
2022-08-19T09:42:49.673Z,18.98
2022-08-19T09:45:22.642Z,18.91
2022-08-19T09:47:51.975Z,18.84
2022-08-19T09:50:25.213Z,18.85
2022-08-19T09:52:57.992Z,18.91
2022-08-19T09:55:32.088Z,18.90
2022-08-19T09:58:02.561Z,19.03
2022-08-19T10:00:31.887Z,19.16
2022-08-19T10:03:00.082Z,19.24
2022-08-19T10:05:48.650Z,19.32
2022-08-19T10:08:18.753Z,19.43
2022-08-19T10:10:49.696Z,19.59
2022-08-19T10:13:22.867Z,19.60
2022-08-19T10:15:52.106Z,19.69
2022-08-19T10:18:22.180Z,19.91
2022-08-19T10:20:53.450Z,20.00
2022-08-19T10:23:22.637Z,20.09
2022-08-19T10:25:54.518Z,19.87
2022-08-19T10:28:23.950Z,19.67
2022-08-19T10:30:51.962Z,19.67
2022-08-19T10:33:38.697Z,19.64
2022-08-19T10:36:12.442Z,19.58
2022-08-19T10:38:52.291Z,19.53
2022-08-19T10:41:25.632Z,19.39
2022-08-19T10:43:55.529Z,19.46
2022-08-19T10:46:25.968Z,19.49
2022-08-19T10:48:54.734Z,19.48
2022-08-19T10:51:47.932Z,19.38
2022-08-19T10:54:17.337Z,19.33
2022-08-19T10:56:58.324Z,19.22
2022-08-19T10:59:33.818Z,19.25
2022-08-19T11:02:07.712Z,19.20
2022-08-19T11:04:35.944Z,19.26
2022-08-19T11:07:05.991Z,19.21
2022-08-19T11:09:40.275Z,19.30
2022-08-19T11:12:09.444Z,19.50
2022-08-19T11:14:38.245Z,19.73
2022-08-19T11:17:07.541Z,20.00
2022-08-19T11:19:36.405Z,20.37
2022-08-19T11:22:06.025Z,20.61
2022-08-19T11:24:37.996Z,20.65
2022-08-19T11:27:10.037Z,20.72
2022-08-19T11:29:40.445Z,20.91
2022-08-19T11:32:11.721Z,21.01
2022-08-19T11:34:40.089Z,21.19
2022-08-19T11:37:10.112Z,21.45
2022-08-19T11:39:39.357Z,21.19
2022-08-19T11:42:23.425Z,21.33
2022-08-19T11:44:51.608Z,21.35
2022-08-19T11:47:20.084Z,21.30
2022-08-19T11:49:48.157Z,21.17
2022-08-19T11:52:17.608Z,21.15
2022-08-19T11:54:45.637Z,20.93
2022-08-19T11:57:15.768Z,20.70
2022-08-19T11:59:43.795Z,20.72
2022-08-19T12:02:12.362Z,20.59
2022-08-19T12:04:40.390Z,20.46
2022-08-19T12:07:08.548Z,20.43
2022-08-19T12:09:38.620Z,20.45
2022-08-19T12:12:11.390Z,20.61
2022-08-19T12:14:40.084Z,20.60
2022-08-19T12:17:08.489Z,20.56
2022-08-19T12:19:40.567Z,20.73
2022-08-19T12:22:08.678Z,20.83
2022-08-19T12:24:38.080Z,20.88
2022-08-19T12:27:06.193Z,20.60
2022-08-19T12:29:40.890Z,20.56
2022-08-19T12:32:12.099Z,20.47
2022-08-19T12:34:40.964Z,20.39
2022-08-19T12:37:09.128Z,20.36
2022-08-19T12:39:42.102Z,20.41
2022-08-19T12:42:10.644Z,20.75
2022-08-19T12:44:41.636Z,21.03
2022-08-19T12:47:13.096Z,21.31
2022-08-19T12:49:54.387Z,21.89
2022-08-19T12:52:25.466Z,22.36
2022-08-19T12:54:56.571Z,22.84
2022-08-19T12:57:32.197Z,23.08
2022-08-19T13:00:03.009Z,23.49
2022-08-19T13:02:38.855Z,23.12
2022-08-19T13:05:11.120Z,23.02
2022-08-19T13:07:40.493Z,22.68
2022-08-19T13:10:13.336Z,22.53
2022-08-19T13:12:42.867Z,22.09
2022-08-19T13:15:11.798Z,21.78
2022-08-19T13:17:40.878Z,21.60
2022-08-19T13:20:10.898Z,21.57
2022-08-19T13:22:39.720Z,21.61
2022-08-19T13:25:10.710Z,21.73
2022-08-19T13:27:39.569Z,21.59
2022-08-19T13:30:27.682Z,21.66
2022-08-19T13:33:15.374Z,21.75
2022-08-19T13:35:47.887Z,21.75
2022-08-19T13:38:17.350Z,21.75
2022-08-19T13:40:47.410Z,21.78
2022-08-19T13:43:22.526Z,21.81
2022-08-19T13:45:53.611Z,21.91
2022-08-19T13:48:21.956Z,21.91
2022-08-19T13:50:50.098Z,21.91
2022-08-19T13:53:19.236Z,22.17
2022-08-19T13:55:48.637Z,22.33
2022-08-19T13:58:16.877Z,22.14
2022-08-19T14:00:46.887Z,22.02
2022-08-19T14:03:15.091Z,21.96
2022-08-19T14:05:43.339Z,21.95
2022-08-19T14:08:12.477Z,21.88
2022-08-19T14:10:41.818Z,21.70
2022-08-19T14:13:11.280Z,21.62
2022-08-19T14:15:39.894Z,21.65
2022-08-19T14:18:07.905Z,21.57
2022-08-19T14:20:36.650Z,21.51
2022-08-19T14:23:06.536Z,21.41
2022-08-19T14:25:35.289Z,21.47
2022-08-19T14:28:03.560Z,21.50
2022-08-19T14:30:35.202Z,21.48
2022-08-19T14:33:04.158Z,21.47
2022-08-19T14:35:35.635Z,21.55
2022-08-19T14:38:04.353Z,21.64
2022-08-19T14:40:33.352Z,21.74
2022-08-19T14:43:05.209Z,21.69
2022-08-19T14:45:37.204Z,21.74
2022-08-19T14:48:05.707Z,21.78
2022-08-19T14:53:09.044Z,21.91
2022-08-19T14:55:44.006Z,22.12
2022-08-19T14:58:28.804Z,22.24
2022-08-19T15:01:01.147Z,22.15
2022-08-19T15:03:29.968Z,22.15
2022-08-19T15:06:03.248Z,22.22
2022-08-19T15:08:34.887Z,22.10
2022-08-19T15:11:03.685Z,22.04
2022-08-19T15:13:32.101Z,22.06
2022-08-19T15:16:05.309Z,22.10
2022-08-19T15:18:33.547Z,22.24
2022-08-19T15:21:01.914Z,23.10
2022-08-19T15:23:30.241Z,24.28
2022-08-19T15:25:58.511Z,25.01
2022-08-19T15:28:28.054Z,25.49
2022-08-19T15:30:56.121Z,25.43
2022-08-19T15:33:25.562Z,25.11
2022-08-19T15:35:54.052Z,24.54
2022-08-19T15:38:23.798Z,23.98
2022-08-19T15:40:52.497Z,23.50
2022-08-19T15:43:22.401Z,23.04
2022-08-19T15:45:50.585Z,23.00
2022-08-19T15:48:18.840Z,22.88
2022-08-19T15:50:48.242Z,23.36
2022-08-19T15:53:17.057Z,23.38
2022-08-19T15:55:48.217Z,23.45
2022-08-19T15:58:34.295Z,22.98
2022-08-19T16:01:23.594Z,22.79
2022-08-19T16:04:14.112Z,22.41
2022-08-19T16:06:46.924Z,22.20
2022-08-19T16:09:16.228Z,22.00
2022-08-19T16:11:46.300Z,21.75
2022-08-19T16:14:15.586Z,21.60
2022-08-19T16:16:46.983Z,21.56
2022-08-19T16:19:17.510Z,21.45
2022-08-19T16:21:49.055Z,21.38
2022-08-19T16:24:19.766Z,21.46
2022-08-19T16:26:49.180Z,21.48
2022-08-19T16:29:34.089Z,21.52
2022-08-19T16:32:10.145Z,21.49
2022-08-19T16:34:40.052Z,21.51
2022-08-19T16:37:10.577Z,21.51
2022-08-19T16:39:39.787Z,21.68
2022-08-19T16:42:09.977Z,22.09
2022-08-19T16:44:39.416Z,22.70
2022-08-19T16:47:07.853Z,23.37
2022-08-19T16:49:52.966Z,24.19
2022-08-19T16:52:26.209Z,24.88
2022-08-19T16:54:54.653Z,25.15
2022-08-19T16:57:23.929Z,25.35
2022-08-19T16:59:52.794Z,25.12
2022-08-19T17:02:22.459Z,25.05
2022-08-19T17:04:57.454Z,25.23
2022-08-19T17:07:29.534Z,24.83
2022-08-19T17:10:02.048Z,25.40
2022-08-19T17:12:32.419Z,25.23
2022-08-19T17:15:02.148Z,25.05
2022-08-19T17:17:30.799Z,24.64
2022-08-19T17:20:00.279Z,24.19
2022-08-19T17:22:29.925Z,23.93
2022-08-19T17:24:58.692Z,23.61
2022-08-19T17:27:31.517Z,23.20
2022-08-19T17:30:02.361Z,23.20
2022-08-19T17:32:34.271Z,22.87
2022-08-19T17:35:03.622Z,22.54
2022-08-19T17:37:34.166Z,22.29
2022-08-19T17:40:03.362Z,22.06
2022-08-19T17:42:31.997Z,22.09
2022-08-19T17:45:00.088Z,22.01
2022-08-19T17:47:28.981Z,21.74
2022-08-19T17:49:57.614Z,21.64
2022-08-19T17:52:26.075Z,21.54
2022-08-19T17:54:56.014Z,21.40
2022-08-19T17:57:24.380Z,21.35
2022-08-19T17:59:52.525Z,21.30
2022-08-19T18:02:22.004Z,21.25
2022-08-19T18:04:50.462Z,21.13
2022-08-19T18:07:21.395Z,21.08
2022-08-19T18:09:51.866Z,21.01
2022-08-19T18:12:27.033Z,20.88
2022-08-19T18:14:55.270Z,20.86
2022-08-19T18:17:24.389Z,20.81
2022-08-19T18:19:52.778Z,20.76
2022-08-19T18:22:27.418Z,20.69
2022-08-19T18:24:56.059Z,20.62
2022-08-19T18:27:25.913Z,20.56
2022-08-19T18:29:59.184Z,20.50
2022-08-19T18:32:29.046Z,20.47
2022-08-19T18:34:57.140Z,20.38
2022-08-19T18:37:26.932Z,20.29
2022-08-19T18:40:12.717Z,20.24
2022-08-19T18:43:02.460Z,20.20
2022-08-19T18:45:47.787Z,20.07
2022-08-19T18:48:33.338Z,20.04
2022-08-19T18:51:02.434Z,20.04
2022-08-19T18:53:33.960Z,19.94
2022-08-19T18:56:02.801Z,19.89
2022-08-19T18:58:34.703Z,19.85
2022-08-19T19:01:10.859Z,19.80
2022-08-19T19:03:41.871Z,19.74
2022-08-19T19:06:10.039Z,19.68
2022-08-19T19:08:38.836Z,19.65
2022-08-19T19:11:07.131Z,19.60
2022-08-19T19:13:39.824Z,19.56
2022-08-19T19:16:09.588Z,19.48
2022-08-19T19:18:37.666Z,19.45
2022-08-19T19:21:06.157Z,19.40
2022-08-19T19:23:34.272Z,19.40
2022-08-19T19:26:02.313Z,19.34
2022-08-19T19:28:30.443Z,19.31
2022-08-19T19:30:59.821Z,19.25
2022-08-19T19:33:28.901Z,19.24
2022-08-19T19:35:57.013Z,19.15
2022-08-19T19:38:25.691Z,19.11
2022-08-19T19:40:53.728Z,19.08
2022-08-19T19:43:22.426Z,19.05
2022-08-19T19:45:51.949Z,19.04
2022-08-19T19:48:21.389Z,18.97
2022-08-19T19:50:55.895Z,18.90
2022-08-19T19:53:26.165Z,18.84
2022-08-19T19:55:58.841Z,18.80
2022-08-19T19:58:28.766Z,18.69
2022-08-19T20:00:58.730Z,18.64
2022-08-19T20:03:29.877Z,18.56
2022-08-19T20:05:59.480Z,18.44
2022-08-19T20:08:46.421Z,18.33
2022-08-19T20:11:25.901Z,18.23
2022-08-19T20:13:53.949Z,18.10
2022-08-19T20:16:23.048Z,18.06
2022-08-19T20:18:52.514Z,18.00
2022-08-19T20:21:24.029Z,17.93
2022-08-19T20:24:09.890Z,17.78
2022-08-19T20:26:38.436Z,17.65
2022-08-19T20:29:13.399Z,17.50
2022-08-19T20:31:59.149Z,17.44
2022-08-19T20:34:29.780Z,17.43
2022-08-19T20:36:57.821Z,17.36
2022-08-19T20:39:25.853Z,17.32
2022-08-19T20:41:56.280Z,17.27
2022-08-19T20:44:25.875Z,17.23
2022-08-19T20:46:54.770Z,17.23
2022-08-19T20:49:27.457Z,17.21
2022-08-19T20:51:58.391Z,17.17
2022-08-19T20:54:27.276Z,17.08
2022-08-19T20:56:55.548Z,16.98
2022-08-19T20:59:26.264Z,16.95
2022-08-19T21:01:55.661Z,17.00
2022-08-19T21:04:23.724Z,17.01
2022-08-19T21:06:51.827Z,17.04
2022-08-19T21:09:21.407Z,17.10
2022-08-19T21:11:49.709Z,17.15
2022-08-19T21:14:18.066Z,17.23
2022-08-19T21:16:46.562Z,17.26
2022-08-19T21:19:14.615Z,17.27
2022-08-19T21:21:42.733Z,17.32
2022-08-19T21:24:10.820Z,17.24
2022-08-19T21:26:40.553Z,17.01
2022-08-19T21:29:08.635Z,16.81
2022-08-19T21:31:36.670Z,16.72
2022-08-19T21:34:05.351Z,16.60
2022-08-19T21:36:33.403Z,16.66
2022-08-19T21:39:01.473Z,16.72
2022-08-19T21:41:29.568Z,16.71
2022-08-19T21:43:58.993Z,16.70
2022-08-19T21:46:27.033Z,16.62
2022-08-19T21:48:55.128Z,16.68
2022-08-19T21:51:23.150Z,16.74
2022-08-19T21:53:52.973Z,16.76
2022-08-19T21:56:21.372Z,16.78
2022-08-19T21:58:49.534Z,16.66
2022-08-19T22:01:19.069Z,16.60
2022-08-19T22:03:47.133Z,16.58
2022-08-19T22:06:16.322Z,16.58
2022-08-19T22:08:44.874Z,16.59
2022-08-19T22:11:13.149Z,16.63
2022-08-19T22:13:41.388Z,16.67
2022-08-19T22:16:11.001Z,16.72
2022-08-19T22:18:40.479Z,16.73
2022-08-19T22:21:11.882Z,16.72
2022-08-19T22:23:41.608Z,16.57
2022-08-19T22:26:09.779Z,16.53
2022-08-19T22:28:38.329Z,16.43
2022-08-19T22:31:08.235Z,16.41
2022-08-19T22:33:37.445Z,16.40
2022-08-19T22:36:08.521Z,16.46
2022-08-19T22:38:37.379Z,16.53
2022-08-19T22:41:07.599Z,16.55
2022-08-19T22:43:37.505Z,16.57
2022-08-19T22:46:16.949Z,16.50
2022-08-19T22:48:46.728Z,16.34
2022-08-19T22:51:34.586Z,16.22
2022-08-19T22:54:03.210Z,16.25
2022-08-19T22:56:31.258Z,16.26
2022-08-19T22:58:59.314Z,16.34
2022-08-19T23:01:29.983Z,16.36
2022-08-19T23:03:59.772Z,16.39
2022-08-19T23:06:33.529Z,16.42
2022-08-19T23:09:04.467Z,16.46
2022-08-19T23:11:35.526Z,16.48
2022-08-19T23:14:04.941Z,16.55
2022-08-19T23:16:35.380Z,16.53
2022-08-19T23:19:03.651Z,16.58
2022-08-19T23:21:33.182Z,16.63
2022-08-19T23:24:01.427Z,16.67
2022-08-19T23:26:33.854Z,16.72
2022-08-19T23:29:21.388Z,16.69
2022-08-19T23:31:49.586Z,16.62
2022-08-19T23:34:18.017Z,16.61
2022-08-19T23:36:48.332Z,16.60
2022-08-19T23:39:16.385Z,16.63
2022-08-19T23:41:44.397Z,16.65
2022-08-19T23:44:14.533Z,16.66
2022-08-19T23:46:54.369Z,16.67
2022-08-19T23:49:25.286Z,16.69
2022-08-19T23:51:56.429Z,16.73
2022-08-19T23:54:27.541Z,16.73
2022-08-19T23:57:13.981Z,16.81
2022-08-19T23:59:45.198Z,16.88
